Time;durP1;ratioP1;P1;durP2;ratioP2;P2;SDS_P1;SDS_P2;PMS_P1;PMS_P2;Temp;Humidity;BMP_temperature;BMP_pressure;BME280_temperature;BME280_humidity;BME280_pressure;Samples;Min_cycle;Max_cycle;Signal;HPM_P1;HPM_P2
2023/04/04 00:01:39;;;;;;;7.47;6.60;;;0.20;99.90;;;;;;5074892;28;20201;-71
2023/04/04 00:04:05;;;;;;;7.30;6.50;;;0.20;99.90;;;;;;5076351;28;20178;-71
2023/04/04 00:06:31;;;;;;;7.53;6.73;;;0.30;99.90;;;;;;5076444;28;20235;-71
2023/04/04 00:08:57;;;;;;;9.10;6.80;;;0.40;99.90;;;;;;5075001;28;20201;-71
2023/04/04 00:11:25;;;;;;;7.03;6.33;;;0.50;99.90;;;;;;5074969;28;20281;-71
2023/04/04 00:13:50;;;;;;;6.90;6.33;;;0.50;99.90;;;;;;5076276;28;20170;-71
2023/04/04 00:16:16;;;;;;;7.97;6.13;;;0.50;99.90;;;;;;5074699;28;20266;-71
2023/04/04 00:18:42;;;;;;;6.67;6.17;;;0.60;99.90;;;;;;5074903;28;20649;-71
2023/04/04 00:21:08;;;;;;;8.93;7.40;;;0.40;99.90;;;;;;5075954;28;20189;-71
2023/04/04 00:23:33;;;;;;;7.27;6.67;;;0.30;99.90;;;;;;5088606;28;20209;-71
2023/04/04 00:25:59;;;;;;;9.50;7.50;;;0.20;99.90;;;;;;5096138;28;20541;-71
2023/04/04 00:28:25;;;;;;;9.87;7.30;;;0.30;99.90;;;;;;5094947;28;20592;-71
2023/04/04 00:30:51;;;;;;;8.97;7.50;;;0.30;99.90;;;;;;5095066;28;20193;-71
2023/04/04 00:33:16;;;;;;;7.37;6.77;;;0.30;99.90;;;;;;5094348;28;20751;-70
2023/04/04 00:35:42;;;;;;;7.87;7.13;;;0.20;99.90;;;;;;5096096;28;20649;-70
2023/04/04 00:38:08;;;;;;;7.73;6.83;;;0.10;99.90;;;;;;5096243;28;20180;-71
2023/04/04 00:40:44;;;;;;;9.70;6.97;;;0.20;99.90;;;;;;5094549;28;20205;-71
2023/04/04 00:43:10;;;;;;;7.10;6.50;;;0.20;99.90;;;;;;5095895;28;20161;-71
2023/04/04 00:45:36;;;;;;;7.80;7.10;;;0.20;99.90;;;;;;5094553;28;20184;-71
2023/04/04 00:48:02;;;;;;;9.47;7.60;;;0.20;99.90;;;;;;5094665;28;20686;-71
2023/04/04 00:50:30;;;;;;;7.97;7.17;;;0.20;99.90;;;;;;5094641;28;20224;-71
2023/04/04 00:52:56;;;;;;;7.93;7.20;;;0.20;99.90;;;;;;5094400;28;20181;-71
2023/04/04 00:55:23;;;;;;;7.97;6.70;;;0.20;99.90;;;;;;5095756;28;20182;-70
2023/04/04 00:57:49;;;;;;;8.77;7.17;;;0.10;99.90;;;;;;5095784;28;20185;-71
2023/04/04 01:00:15;;;;;;;7.27;6.53;;;-0.10;99.90;;;;;;5095410;28;20223;-71
2023/04/04 01:02:41;;;;;;;7.90;7.17;;;-0.20;99.90;;;;;;5095595;28;20222;-71
2023/04/04 01:05:07;;;;;;;7.93;7.13;;;-0.10;99.90;;;;;;5094863;28;20602;-71
2023/04/04 01:07:36;;;;;;;7.67;6.67;;;-0.10;99.90;;;;;;5094530;28;20604;-71
2023/04/04 01:10:05;;;;;;;7.37;6.77;;;-0.10;99.90;;;;;;5095462;28;20216;-71
2023/04/04 01:12:31;;;;;;;7.47;6.77;;;0.00;99.90;;;;;;5094124;28;20211;-70
2023/04/04 01:14:57;;;;;;;7.80;7.00;;;0.00;99.90;;;;;;5094203;28;20545;-70
2023/04/04 01:17:23;;;;;;;7.57;6.77;;;0.00;99.90;;;;;;5095552;28;20661;-70
2023/04/04 01:19:56;;;;;;;7.10;6.57;;;0.00;99.90;;;;;;5095084;28;20583;-70
2023/04/04 01:22:22;;;;;;;8.60;7.70;;;0.00;99.90;;;;;;5095705;28;20185;-70
2023/04/04 01:24:48;;;;;;;7.80;7.10;;;0.00;99.90;;;;;;5094430;28;20180;-70
2023/04/04 01:27:15;;;;;;;7.67;7.07;;;0.00;99.90;;;;;;5095625;28;20173;-70
2023/04/04 01:29:41;;;;;;;8.20;7.40;;;0.10;99.90;;;;;;5093877;28;20197;-70
2023/04/04 01:32:18;;;;;;;8.50;7.33;;;0.10;99.90;;;;;;5095408;28;20176;-71
2023/04/04 01:34:48;;;;;;;7.40;6.70;;;0.10;99.90;;;;;;5094056;28;20230;-71
2023/04/04 01:37:43;;;;;;;7.97;7.37;;;0.00;99.90;;;;;;5093999;28;20184;-71
2023/04/04 01:40:20;;;;;;;12.13;8.03;;;-0.10;99.90;;;;;;5089858;28;20254;-71
2023/04/04 01:42:46;;;;;;;8.90;7.87;;;-0.10;99.90;;;;;;5094044;28;20286;-70
2023/04/04 01:45:12;;;;;;;7.57;6.80;;;-0.10;99.90;;;;;;5094073;28;20255;-71
2023/04/04 01:47:41;;;;;;;7.23;6.73;;;-0.10;99.90;;;;;;5095021;28;20200;-71
2023/04/04 01:50:09;;;;;;;7.47;6.87;;;-0.10;99.90;;;;;;5094901;28;20208;-71
2023/04/04 01:52:35;;;;;;;8.20;7.47;;;-0.20;99.90;;;;;;5094940;28;20242;-71
2023/04/04 01:55:02;;;;;;;10.70;8.40;;;-0.40;99.90;;;;;;5094937;28;20529;-71
2023/04/04 01:57:28;;;;;;;8.43;7.73;;;-0.60;99.90;;;;;;5093605;28;20230;-71
2023/04/04 01:59:54;;;;;;;8.33;7.63;;;-0.60;99.90;;;;;;5094590;28;20205;-70
2023/04/04 02:02:20;;;;;;;10.03;8.57;;;-0.60;99.90;;;;;;5093810;28;20183;-70
2023/04/04 02:04:46;;;;;;;8.10;7.40;;;-0.50;99.90;;;;;;5093333;28;20245;-68
2023/04/04 02:07:13;;;;;;;8.47;7.60;;;-0.50;99.90;;;;;;5093349;28;20180;-68
2023/04/04 02:09:38;;;;;;;8.73;8.03;;;-0.50;99.90;;;;;;5094426;28;20245;-68
2023/04/04 02:12:05;;;;;;;11.40;7.50;;;-0.40;99.90;;;;;;5094498;28;20169;-68
2023/04/04 02:14:30;;;;;;;8.27;7.47;;;-0.50;99.90;;;;;;5093073;28;20635;-68
2023/04/04 02:16:57;;;;;;;8.13;7.33;;;-0.40;99.90;;;;;;5094106;28;20263;-68
2023/04/04 02:19:23;;;;;;;8.17;7.47;;;-0.40;99.90;;;;;;5094350;28;20633;-68
2023/04/04 02:21:49;;;;;;;9.37;7.57;;;-0.40;99.90;;;;;;5094321;28;20196;-68
2023/04/04 02:24:15;;;;;;;8.50;7.63;;;-0.50;99.90;;;;;;5093142;28;20185;-68
2023/04/04 02:26:41;;;;;;;8.60;7.70;;;-0.70;99.90;;;;;;5094331;28;20263;-68
2023/04/04 02:29:06;;;;;;;8.27;7.57;;;-0.80;99.90;;;;;;5094306;28;20227;-68
2023/04/04 02:31:33;;;;;;;8.10;7.30;;;-0.80;99.90;;;;;;5094044;28;20232;-68
2023/04/04 02:33:59;;;;;;;8.47;7.70;;;-0.70;99.90;;;;;;5094514;28;20175;-68
2023/04/04 02:36:24;;;;;;;8.40;7.60;;;-0.70;99.90;;;;;;5092934;28;20256;-68
2023/04/04 02:38:50;;;;;;;8.73;7.37;;;-0.70;99.90;;;;;;5093037;28;20212;-68
2023/04/04 02:41:16;;;;;;;8.67;7.63;;;-0.70;99.90;;;;;;5094650;28;20219;-68
2023/04/04 02:43:42;;;;;;;8.93;8.00;;;-0.60;99.90;;;;;;5092575;28;20229;-68
2023/04/04 02:46:08;;;;;;;9.17;8.27;;;-0.60;99.90;;;;;;5094000;28;20197;-68
2023/04/04 02:48:35;;;;;;;10.40;8.10;;;-0.50;99.90;;;;;;5092625;28;20208;-68
2023/04/04 02:51:01;;;;;;;9.50;8.70;;;-0.60;99.90;;;;;;5094227;28;20658;-70
2023/04/04 02:53:27;;;;;;;9.17;8.37;;;-0.70;99.90;;;;;;5094071;28;20188;-68
2023/04/04 02:55:52;;;;;;;10.03;8.53;;;-0.90;99.90;;;;;;5092334;28;20185;-68
2023/04/04 02:58:18;;;;;;;9.37;8.30;;;-1.10;99.90;;;;;;5093317;28;20192;-68
2023/04/04 03:00:46;;;;;;;10.23;8.77;;;-1.10;99.90;;;;;;5093571;28;20193;-68
2023/04/04 03:03:11;;;;;;;9.53;8.63;;;-1.10;99.90;;;;;;5093816;28;20165;-68
2023/04/04 03:05:37;;;;;;;9.90;8.97;;;-1.30;99.90;;;;;;5093831;28;20176;-68
2023/04/04 03:08:03;;;;;;;9.10;8.20;;;-1.40;99.90;;;;;;5093866;28;20169;-68
2023/04/04 03:10:29;;;;;;;9.67;8.67;;;-1.40;99.90;;;;;;5092388;28;20246;-68
2023/04/04 03:12:56;;;;;;;9.03;8.17;;;-1.50;99.90;;;;;;5093811;28;20169;-68
2023/04/04 03:15:22;;;;;;;9.20;8.40;;;-1.40;99.90;;;;;;5093855;28;20252;-68
2023/04/04 03:17:47;;;;;;;9.53;8.80;;;-1.30;99.90;;;;;;5092591;28;20221;-67
2023/04/04 03:20:16;;;;;;;8.90;8.20;;;-1.20;99.90;;;;;;5094149;28;20247;-70
2023/04/04 03:22:42;;;;;;;9.40;8.50;;;-1.20;99.90;;;;;;5093625;28;20213;-68
2023/04/04 03:25:08;;;;;;;9.10;8.20;;;-1.10;99.90;;;;;;5093927;28;20165;-68
2023/04/04 03:27:34;;;;;;;9.10;8.30;;;-1.00;99.90;;;;;;5093463;28;20673;-68
2023/04/04 03:30:00;;;;;;;8.93;8.13;;;-1.10;99.90;;;;;;5093535;28;20240;-68
2023/04/04 03:32:26;;;;;;;9.50;8.70;;;-1.10;99.90;;;;;;5093622;28;20173;-68
2023/04/04 03:34:52;;;;;;;9.47;8.03;;;-1.30;99.90;;;;;;5092304;28;20173;-68
2023/04/04 03:37:18;;;;;;;10.50;9.40;;;-1.40;99.90;;;;;;5093409;28;20192;-68
2023/04/04 03:39:44;;;;;;;9.73;8.83;;;-1.60;99.90;;;;;;5091778;28;20176;-68
2023/04/04 03:42:10;;;;;;;10.27;9.17;;;-1.70;99.90;;;;;;5093400;28;20546;-68
2023/04/04 03:44:42;;;;;;;9.33;8.53;;;-1.80;99.90;;;;;;5093326;28;20252;-68
2023/04/04 03:47:08;;;;;;;9.20;8.40;;;-1.70;99.90;;;;;;5093486;28;20161;-68
2023/04/04 03:49:33;;;;;;;11.67;8.60;;;-1.50;99.90;;;;;;5092044;28;20209;-68
2023/04/04 03:52:01;;;;;;;11.80;9.27;;;-1.50;99.90;;;;;;5093139;28;20157;-68
2023/04/04 03:54:28;;;;;;;9.60;8.77;;;-1.40;99.90;;;;;;5091974;28;20177;-68
2023/04/04 03:56:54;;;;;;;10.27;9.27;;;-1.30;99.90;;;;;;5093629;28;20505;-68
2023/04/04 03:59:20;;;;;;;11.20;9.83;;;-1.30;99.90;;;;;;5092933;28;20681;-68
2023/04/04 04:01:46;;;;;;;13.03;9.80;;;-1.30;99.90;;;;;;5093017;28;20194;-68
2023/04/04 04:04:12;;;;;;;12.67;10.83;;;-1.30;99.90;;;;;;5093138;28;20522;-68
2023/04/04 04:06:37;;;;;;;10.43;9.43;;;-1.20;99.90;;;;;;5092046;28;20185;-68
2023/04/04 04:09:03;;;;;;;12.37;8.90;;;-1.20;99.90;;;;;;5095038;28;20200;-68
2023/04/04 04:11:29;;;;;;;10.97;9.67;;;-1.30;99.90;;;;;;5098249;28;20196;-68
2023/04/04 04:13:55;;;;;;;9.73;8.83;;;-1.50;99.90;;;;;;5097056;28;20664;-68
2023/04/04 04:16:21;;;;;;;11.07;9.50;;;-1.60;99.90;;;;;;5097886;28;20174;-68
2023/04/04 04:18:47;;;;;;;10.53;9.67;;;-1.60;99.90;;;;;;5098192;28;20630;-68
2023/04/04 04:21:13;;;;;;;9.97;8.97;;;-1.70;99.90;;;;;;5095670;28;20212;-68
2023/04/04 04:23:39;;;;;;;10.93;9.57;;;-1.60;99.90;;;;;;5097429;28;20181;-67
2023/04/04 04:26:05;;;;;;;10.23;9.17;;;-1.80;99.90;;;;;;5095389;28;20542;-67
2023/04/04 04:28:31;;;;;;;10.97;9.90;;;-1.90;99.90;;;;;;5096511;28;20197;-67
2023/04/04 04:31:06;;;;;;;10.63;9.60;;;-2.00;99.90;;;;;;5096462;28;20189;-67
2023/04/04 04:33:32;;;;;;;10.67;9.57;;;-2.10;99.90;;;;;;5097141;28;20156;-69
2023/04/04 04:36:02;;;;;;;10.20;9.43;;;-1.90;99.90;;;;;;5095382;28;20543;-67
2023/04/04 04:38:28;;;;;;;10.83;9.83;;;-1.90;99.90;;;;;;5097132;28;20180;-67
2023/04/04 04:40:55;;;;;;;9.57;8.63;;;-1.90;99.90;;;;;;5097230;28;20264;-67
2023/04/04 04:43:21;;;;;;;10.80;9.80;;;-1.90;99.90;;;;;;5096383;28;20173;-67
2023/04/04 04:45:47;;;;;;;9.97;8.97;;;-2.00;99.90;;;;;;5096025;28;20668;-67
2023/04/04 04:48:13;;;;;;;10.57;9.17;;;-2.10;99.90;;;;;;5094808;28;20661;-67
2023/04/04 04:50:38;;;;;;;10.23;9.23;;;-2.20;99.90;;;;;;5096109;28;20264;-67
2023/04/04 04:53:04;;;;;;;9.90;9.00;;;-2.20;99.90;;;;;;5095015;28;20184;-67
2023/04/04 04:55:30;;;;;;;10.20;9.13;;;-2.10;99.90;;;;;;5096221;28;20170;-67
2023/04/04 04:57:56;;;;;;;9.53;8.83;;;-2.20;99.90;;;;;;5095759;28;20192;-67
2023/04/04 05:00:24;;;;;;;9.53;8.73;;;-2.10;99.90;;;;;;5095689;28;20221;-66
2023/04/04 05:02:49;;;;;;;11.13;9.60;;;-2.00;99.90;;;;;;5095936;28;20252;-65
2023/04/04 05:05:15;;;;;;;11.00;9.97;;;-2.00;99.90;;;;;;5094226;28;20197;-65
2023/04/04 05:07:45;;;;;;;10.83;9.80;;;-2.00;99.90;;;;;;5094742;28;20203;-67
2023/04/04 05:10:11;;;;;;;10.13;9.07;;;-2.00;99.90;;;;;;5095599;28;20209;-67
2023/04/04 05:12:42;;;;;;;10.03;9.20;;;-2.10;99.90;;;;;;5095562;28;20260;-67
2023/04/04 05:15:08;;;;;;;10.60;9.60;;;-2.00;99.90;;;;;;5096088;28;20162;-67
2023/04/04 05:17:38;;;;;;;11.13;10.03;;;-1.90;99.90;;;;;;5094504;28;20222;-67
2023/04/04 05:20:04;;;;;;;11.10;9.07;;;-1.90;99.90;;;;;;5095551;28;20197;-67
2023/04/04 05:22:30;;;;;;;10.43;9.43;;;-1.90;99.90;;;;;;5094372;28;20189;-67
2023/04/04 05:24:56;;;;;;;10.80;9.77;;;-1.90;99.90;;;;;;5095571;28;20180;-67
2023/04/04 05:27:22;;;;;;;10.50;9.50;;;-1.90;99.90;;;;;;5094329;28;20188;-67
2023/04/04 05:29:48;;;;;;;13.10;10.10;;;-1.80;99.90;;;;;;5094541;28;20209;-68
2023/04/04 05:32:14;;;;;;;11.00;9.93;;;-1.90;99.90;;;;;;5096097;28;20177;-67
2023/04/04 05:34:40;;;;;;;11.07;9.97;;;-1.90;99.90;;;;;;5096485;28;20156;-67
2023/04/04 05:37:06;;;;;;;11.63;10.13;;;-1.80;99.90;;;;;;5096271;28;20169;-67
2023/04/04 05:39:32;;;;;;;12.03;10.03;;;-1.60;99.90;;;;;;5095586;28;20173;-67
2023/04/04 05:41:58;;;;;;;11.43;10.27;;;-1.60;99.90;;;;;;5095531;28;20184;-67
2023/04/04 05:44:24;;;;;;;11.47;10.37;;;-1.50;99.90;;;;;;5095295;28;20184;-69
2023/04/04 05:46:50;;;;;;;15.47;11.03;;;-1.40;99.90;;;;;;5095150;28;20165;-69
2023/04/04 05:49:16;;;;;;;11.87;10.70;;;-1.30;99.90;;;;;;5094870;28;20568;-69
2023/04/04 05:51:41;;;;;;;12.87;11.03;;;-1.10;99.90;;;;;;5093871;28;20208;-69
2023/04/04 05:54:07;;;;;;;12.47;10.43;;;-1.00;99.90;;;;;;5094942;28;20551;-69
2023/04/04 05:56:33;;;;;;;12.00;10.80;;;-0.90;99.90;;;;;;5094998;28;20184;-69
2023/04/04 05:58:59;;;;;;;11.83;10.63;;;-0.90;99.90;;;;;;5094807;28;20196;-69
2023/04/04 06:01:25;;;;;;;13.87;10.97;;;-0.90;99.90;;;;;;5093372;28;20207;-69
2023/04/04 06:03:51;;;;;;;14.57;10.93;;;-0.90;99.90;;;;;;5094619;28;20177;-69
2023/04/04 06:06:17;;;;;;;13.80;11.40;;;-0.90;99.90;;;;;;5094783;28;20626;-69
2023/04/04 06:08:43;;;;;;;12.70;11.40;;;-0.90;99.90;;;;;;5093192;28;20595;-69
2023/04/04 06:11:09;;;;;;;12.93;11.47;;;-0.80;99.90;;;;;;5093330;28;20203;-69
2023/04/04 06:13:34;;;;;;;12.67;11.07;;;-0.70;99.90;;;;;;5093528;28;20176;-69
2023/04/04 06:16:00;;;;;;;13.57;12.27;;;-0.70;99.90;;;;;;5094382;28;20173;-69
2023/04/04 06:19:17;;;;;;;12.60;11.40;;;-0.70;99.90;;;;;;5094495;28;20179;-69
2023/04/04 06:21:59;;;;;;;12.93;11.73;;;-0.70;99.90;;;;;;5092876;28;20669;-70
2023/04/04 06:24:24;;;;;;;12.70;11.40;;;-0.70;99.90;;;;;;5093217;28;20268;-70
2023/04/04 06:26:51;;;;;;;15.80;12.43;;;-0.70;99.90;;;;;;5094295;28;20256;-69
2023/04/04 06:29:17;;;;;;;14.77;12.73;;;-0.70;99.90;;;;;;5092970;28;20215;-70
2023/04/04 06:31:43;;;;;;;13.90;12.47;;;-0.80;99.90;;;;;;5092515;28;20197;-70
2023/04/04 06:34:09;;;;;;;13.03;11.70;;;-0.70;99.90;;;;;;5092852;28;20200;-70
2023/04/04 06:36:35;;;;;;;12.70;11.53;;;-0.50;99.90;;;;;;5094507;28;20193;-70
2023/04/04 06:39:01;;;;;;;12.90;11.53;;;-0.40;99.90;;;;;;5093001;28;20181;-70
2023/04/04 06:41:26;;;;;;;13.20;11.83;;;-0.30;99.90;;;;;;5093993;28;20201;-70
2023/04/04 06:43:52;;;;;;;12.87;11.27;;;-0.20;99.90;;;;;;5094647;28;20200;-70
2023/04/04 06:46:18;;;;;;;12.70;11.53;;;0.00;99.90;;;;;;5094006;28;20179;-70
2023/04/04 06:48:44;;;;;;;13.90;11.40;;;0.10;99.90;;;;;;5093136;28;20212;-70
2023/04/04 06:51:10;;;;;;;13.67;12.30;;;0.20;99.90;;;;;;5093986;28;20272;-70
2023/04/04 06:53:37;;;;;;;13.13;11.77;;;0.20;99.90;;;;;;5094184;28;20271;-70
2023/04/04 06:56:03;;;;;;;13.87;12.47;;;0.20;99.90;;;;;;5092648;28;20181;-70
2023/04/04 06:58:29;;;;;;;14.43;11.67;;;0.20;99.90;;;;;;5092440;28;20204;-70
2023/04/04 07:00:58;;;;;;;14.27;12.27;;;0.30;99.90;;;;;;5092278;28;20208;-70
2023/04/04 07:03:25;;;;;;;13.03;11.67;;;0.40;99.90;;;;;;5092461;28;20650;-70
2023/04/04 07:05:51;;;;;;;14.13;11.83;;;0.60;99.90;;;;;;5093928;28;20248;-70
2023/04/04 07:08:16;;;;;;;14.60;12.77;;;0.80;99.90;;;;;;5092407;28;20675;-70
2023/04/04 07:10:42;;;;;;;13.90;12.27;;;0.90;99.90;;;;;;5093393;28;20526;-70
2023/04/04 07:13:09;;;;;;;20.07;12.63;;;1.10;99.90;;;;;;5093651;28;20234;-70
2023/04/04 07:15:34;;;;;;;14.87;12.90;;;1.10;99.90;;;;;;5093744;28;20191;-70
2023/04/04 07:18:00;;;;;;;15.97;12.90;;;1.20;99.90;;;;;;5092136;28;20704;-70
2023/04/04 07:20:27;;;;;;;13.13;11.40;;;1.30;99.90;;;;;;5092729;28;20238;-67
2023/04/04 07:22:53;;;;;;;12.83;11.53;;;1.40;99.90;;;;;;5093239;28;20264;-65
2023/04/04 07:25:19;;;;;;;13.30;11.87;;;1.40;99.90;;;;;;5093307;28;20220;-66
2023/04/04 07:27:45;;;;;;;12.37;11.13;;;1.60;99.90;;;;;;5093333;28;20180;-66
2023/04/04 07:30:11;;;;;;;18.60;11.33;;;1.70;99.90;;;;;;5093320;28;20214;-66
2023/04/04 07:32:37;;;;;;;16.07;11.33;;;1.70;99.90;;;;;;5091738;28;20283;-66
2023/04/04 07:35:04;;;;;;;11.90;10.70;;;1.80;99.90;;;;;;5093390;28;20621;-66
2023/04/04 07:37:30;;;;;;;13.23;11.90;;;2.10;99.90;;;;;;5091926;28;20227;-66
2023/04/04 07:39:55;;;;;;;11.90;10.70;;;2.20;99.90;;;;;;5091737;28;20251;-66
2023/04/04 07:42:24;;;;;;;11.70;10.53;;;2.30;99.90;;;;;;5093140;28;20170;-68
2023/04/04 07:44:53;;;;;;;12.80;11.47;;;2.40;99.90;;;;;;5096492;28;20173;-68
2023/04/04 07:47:20;;;;;;;13.20;12.00;;;2.50;99.90;;;;;;5095822;28;20184;-68
2023/04/04 07:49:46;;;;;;;13.93;12.63;;;2.70;99.90;;;;;;5097193;28;20208;-68
2023/04/04 07:52:12;;;;;;;15.30;12.60;;;2.80;99.90;;;;;;5097345;28;20568;-68
2023/04/04 07:54:39;;;;;;;13.50;12.17;;;2.90;99.90;;;;;;5097237;28;20629;-68
2023/04/04 07:57:05;;;;;;;19.00;12.53;;;3.00;99.90;;;;;;5097614;28;20169;-68
2023/04/04 07:59:32;;;;;;;13.30;11.37;;;3.00;99.90;;;;;;5095914;28;20203;-68
2023/04/04 08:01:57;;;;;;;12.53;11.30;;;3.20;99.90;;;;;;5096711;28;20189;-68
2023/04/04 08:04:23;;;;;;;11.53;10.43;;;3.50;99.90;;;;;;5095671;28;20206;-68
2023/04/04 08:06:49;;;;;;;13.37;11.10;;;3.70;99.90;;;;;;5096995;28;20249;-68
2023/04/04 08:09:15;;;;;;;10.37;9.43;;;3.70;99.90;;;;;;5095238;28;20287;-68
2023/04/04 08:11:41;;;;;;;14.40;8.77;;;3.90;99.90;;;;;;5095631;28;20267;-68
2023/04/04 08:14:10;;;;;;;10.37;8.40;;;4.10;99.90;;;;;;5096875;28;20195;-68
2023/04/04 08:16:37;;;;;;;10.90;8.00;;;4.30;99.90;;;;;;5095290;28;20169;-68
2023/04/04 08:19:03;;;;;;;8.47;7.77;;;4.50;99.90;;;;;;5096847;28;20177;-68
2023/04/04 08:21:29;;;;;;;9.80;6.73;;;4.70;99.90;;;;;;5096682;28;20199;-68
2023/04/04 08:23:55;;;;;;;7.63;6.93;;;4.90;99.90;;;;;;5096641;28;20183;-68
2023/04/04 08:26:21;;;;;;;7.53;6.80;;;5.10;99.90;;;;;;5096968;28;20514;-68
2023/04/04 08:28:47;;;;;;;7.40;6.80;;;5.20;99.90;;;;;;5096432;28;20200;-68
2023/04/04 08:31:13;;;;;;;7.17;6.60;;;5.30;99.90;;;;;;5095048;28;20549;-68
2023/04/04 08:33:39;;;;;;;8.10;5.90;;;5.50;99.90;;;;;;5096824;28;20173;-68
2023/04/04 08:36:05;;;;;;;6.60;6.00;;;5.70;99.90;;;;;;5095253;28;20173;-68
2023/04/04 08:38:30;;;;;;;6.53;5.90;;;5.90;99.90;;;;;;5095325;28;20177;-68
2023/04/04 08:40:57;;;;;;;6.90;5.90;;;6.10;99.90;;;;;;5094965;28;20193;-68
2023/04/04 08:43:24;;;;;;;6.67;6.10;;;6.20;99.90;;;;;;5096437;28;20177;-68
2023/04/04 08:45:53;;;;;;;6.57;5.93;;;6.20;99.90;;;;;;5096144;28;20188;-68
2023/04/04 08:48:19;;;;;;;6.57;5.80;;;6.30;99.90;;;;;;5096496;28;20165;-68
2023/04/04 08:50:45;;;;;;;6.77;5.80;;;6.30;99.90;;;;;;5096072;28;20606;-68
2023/04/04 08:53:12;;;;;;;6.77;5.73;;;6.30;99.90;;;;;;5096009;28;20181;-68
2023/04/04 08:55:38;;;;;;;7.63;6.23;;;6.30;99.90;;;;;;5095915;28;20174;-68
2023/04/04 08:58:04;;;;;;;6.07;5.57;;;6.30;99.90;;;;;;5096473;28;20184;-68
2023/04/04 09:00:31;;;;;;;8.27;6.20;;;6.40;99.90;;;;;;5096214;28;20284;-68
2023/04/04 09:03:23;;;;;;;6.83;5.70;;;6.50;99.90;;;;;;5095895;28;20512;-68
2023/04/04 09:05:49;;;;;;;6.03;5.60;;;6.50;99.90;;;;;;5094764;28;20766;-68
2023/04/04 09:08:17;;;;;;;6.30;5.80;;;6.50;99.90;;;;;;5096108;28;20161;-68
2023/04/04 09:10:44;;;;;;;6.30;5.80;;;6.50;99.90;;;;;;5095139;28;20200;-68
2023/04/04 09:13:10;;;;;;;7.57;6.23;;;6.60;99.90;;;;;;5096581;28;20165;-68
2023/04/04 09:15:40;;;;;;;6.50;5.90;;;6.50;99.90;;;;;;5094408;28;20215;-68
2023/04/04 09:18:06;;;;;;;6.30;5.70;;;6.50;99.90;;;;;;5095801;28;20165;-68
2023/04/04 09:20:39;;;;;;;7.40;6.00;;;6.50;99.90;;;;;;5096035;28;20229;-68
2023/04/04 09:23:13;;;;;;;8.83;5.80;;;6.50;99.90;;;;;;5095681;28;20234;-70
2023/04/04 09:25:47;;;;;;;7.37;6.70;;;6.50;99.90;;;;;;5095913;28;20180;-70
2023/04/04 09:28:14;;;;;;;6.60;5.90;;;6.60;99.90;;;;;;5095696;28;20219;-70
2023/04/04 09:30:40;;;;;;;6.93;6.30;;;6.70;99.90;;;;;;5095606;28;20196;-70
2023/04/04 09:33:08;;;;;;;8.10;5.60;;;6.70;99.90;;;;;;5095740;28;20169;-70
2023/04/04 09:35:37;;;;;;;6.20;5.60;;;6.80;99.90;;;;;;5094607;28;20185;-71
2023/04/04 09:38:06;;;;;;;6.07;5.57;;;7.00;99.90;;;;;;5096370;28;20175;-72
2023/04/04 09:40:36;;;;;;;6.40;5.80;;;7.10;99.90;;;;;;5096085;28;20350;-70
2023/04/04 09:43:05;;;;;;;6.17;5.57;;;7.30;99.90;;;;;;5100349;28;20203;-69
2023/04/04 09:45:34;;;;;;;6.60;5.50;;;7.40;99.90;;;;;;5110333;28;20199;-70
2023/04/04 09:48:01;;;;;;;8.90;6.10;;;7.50;99.90;;;;;;5109834;28;20241;-69
2023/04/04 09:50:29;;;;;;;5.40;5.00;;;7.40;99.90;;;;;;5109116;28;20208;-69
2023/04/04 09:52:58;;;;;;;5.60;5.10;;;7.50;99.90;;;;;;5104651;28;20181;-69
2023/04/04 09:55:32;;;;;;;8.20;5.07;;;7.60;99.90;;;;;;5099075;28;20207;-68
2023/04/04 09:57:57;;;;;;;7.17;4.97;;;7.80;99.90;;;;;;5095913;28;20192;-70
2023/04/04 10:00:29;;;;;;;8.43;5.83;;;7.70;99.90;;;;;;5093769;28;20609;-67
2023/04/04 10:02:57;;;;;;;6.80;5.83;;;7.80;99.90;;;;;;5095172;28;20636;-69
2023/04/04 10:05:23;;;;;;;5.50;5.10;;;7.80;99.90;;;;;;5094621;28;20240;-73
2023/04/04 10:07:49;;;;;;;5.90;4.97;;;7.80;99.90;;;;;;5094117;28;20229;-71
2023/04/04 10:10:15;;;;;;;5.63;5.13;;;7.90;99.90;;;;;;5094669;28;20216;-68
2023/04/04 10:12:45;;;;;;;5.53;5.03;;;7.80;99.90;;;;;;5095411;28;20207;-69
2023/04/04 10:15:13;;;;;;;7.77;5.40;;;7.70;99.90;;;;;;5093656;28;20642;-70
2023/04/04 10:17:40;;;;;;;5.03;4.73;;;7.70;99.90;;;;;;5094921;28;20173;-70
2023/04/04 10:20:08;;;;;;;7.10;5.40;;;7.70;99.90;;;;;;5094171;28;20654;-74
2023/04/04 10:22:35;;;;;;;6.17;5.57;;;7.70;99.90;;;;;;5094808;28;20213;-70
2023/04/04 10:25:02;;;;;;;6.30;5.30;;;7.70;99.90;;;;;;5094519;28;20688;-70
2023/04/04 10:27:28;;;;;;;5.80;5.30;;;7.70;99.90;;;;;;5094829;28;20161;-70
2023/04/04 10:29:54;;;;;;;7.97;5.20;;;7.80;99.90;;;;;;5094876;28;20212;-71
2023/04/04 10:32:37;;;;;;;6.07;5.50;;;7.80;99.90;;;;;;5093664;28;20173;-71
2023/04/04 10:35:09;;;;;;;5.83;5.33;;;7.80;99.90;;;;;;5093330;28;20157;-71
2023/04/04 10:37:51;;;;;;;7.93;5.57;;;7.70;99.90;;;;;;5095041;28;20152;-71
2023/04/04 10:40:20;;;;;;;6.20;5.70;;;7.70;99.90;;;;;;5092979;28;20579;-71
2023/04/04 10:42:47;;;;;;;9.67;5.73;;;7.70;99.90;;;;;;5094241;28;20169;-71
2023/04/04 10:45:15;;;;;;;6.03;5.10;;;7.80;99.90;;;;;;5093107;28;20225;-70
2023/04/04 10:47:42;;;;;;;6.03;5.43;;;7.80;99.90;;;;;;5094846;28;20193;-71
2023/04/04 10:50:11;;;;;;;8.03;5.47;;;7.80;99.90;;;;;;5093416;28;20209;-70
2023/04/04 10:52:40;;;;;;;7.03;5.77;;;7.70;99.90;;;;;;5093351;28;20192;-72
2023/04/04 10:55:08;;;;;;;7.10;5.50;;;7.80;99.90;;;;;;5094407;28;20172;-71
2023/04/04 10:57:42;;;;;;;6.90;5.13;;;7.80;99.90;;;;;;5093391;28;20660;-70
2023/04/04 11:00:12;;;;;;;7.87;5.63;;;8.10;99.90;;;;;;5093612;28;20285;-69
2023/04/04 11:02:51;;;;;;;5.10;4.70;;;8.20;99.90;;;;;;5093179;28;20177;-71
2023/04/04 11:05:29;;;;;;;11.43;5.20;;;8.20;99.90;;;;;;5093179;28;20187;-70
2023/04/04 11:08:02;;;;;;;5.17;4.70;;;8.30;99.90;;;;;;5092733;28;20176;-69
2023/04/04 11:10:48;;;;;;;5.37;4.87;;;8.40;99.90;;;;;;5093681;28;20205;-70
2023/04/04 11:13:25;;;;;;;5.60;5.00;;;8.40;99.90;;;;;;5094124;28;20166;-71
2023/04/04 11:16:03;;;;;;;6.03;5.27;;;8.70;99.90;;;;;;5092927;28;20173;-69
2023/04/04 11:18:39;;;;;;;7.03;4.82;;;8.90;99.90;;;;;;5095572;28;20738;-69
2023/04/04 11:21:23;;;;;;;5.13;4.60;;;9.30;99.90;;;;;;5097851;28;20184;-70
2023/04/04 11:23:58;;;;;;;5.30;4.80;;;9.30;99.90;;;;;;5096737;28;20181;-70
2023/04/04 11:26:27;;;;;;;13.87;4.97;;;9.50;99.90;;;;;;5097770;28;20157;-69
2023/04/04 11:28:57;;;;;;;19.27;5.33;;;9.50;99.90;;;;;;5096289;28;20291;-68
2023/04/04 11:31:28;;;;;;;5.20;4.70;;;9.50;99.90;;;;;;5097300;28;20599;-66
2023/04/04 11:33:58;;;;;;;5.40;4.40;;;9.70;99.90;;;;;;5097875;28;20166;-67
2023/04/04 11:36:36;;;;;;;5.17;4.63;;;9.80;99.90;;;;;;5098126;28;20488;-67
2023/04/04 11:39:05;;;;;;;10.63;4.80;;;10.20;99.90;;;;;;5096426;28;20233;-67
2023/04/04 11:41:53;;;;;;;6.17;4.70;;;10.10;99.90;;;;;;5097370;28;20189;-67
2023/04/04 11:44:23;;;;;;;5.33;4.50;;;10.00;99.90;;;;;;5097890;28;20614;-67
2023/04/04 11:47:10;;;;;;;8.80;5.07;;;9.90;99.90;;;;;;5096173;28;20165;-67
2023/04/04 11:49:41;;;;;;;9.07;4.90;;;10.20;99.90;;;;;;5097588;28;20181;-67
2023/04/04 11:52:15;;;;;;;7.57;5.10;;;10.40;99.90;;;;;;5097506;28;20251;-67
2023/04/04 11:54:42;;;;;;;5.80;4.53;;;10.40;99.90;;;;;;5097400;28;20153;-67
2023/04/04 11:57:15;;;;;;;6.77;5.20;;;10.60;99.90;;;;;;5096679;28;20173;-68
2023/04/04 11:59:44;;;;;;;5.57;4.70;;;10.80;99.90;;;;;;5096078;28;20180;-67
2023/04/04 12:02:11;;;;;;;6.05;4.80;;;10.90;99.90;;;;;;5097315;28;20177;-68
2023/04/04 12:04:44;;;;;;;8.18;4.90;;;11.00;99.90;;;;;;5097230;28;20199;-67
2023/04/04 12:07:11;;;;;;;9.00;4.87;;;10.70;99.90;;;;;;5096888;28;20157;-67
2023/04/04 12:09:38;;;;;;;5.38;4.90;;;10.30;98.30;;;;;;5095628;28;20193;-67
2023/04/04 12:12:06;;;;;;;9.82;4.97;;;10.40;98.60;;;;;;5097156;28;20180;-67
2023/04/04 12:14:32;;;;;;;7.23;4.73;;;10.80;99.10;;;;;;5096685;28;20169;-67
2023/04/04 12:16:58;;;;;;;4.97;4.50;;;11.10;99.20;;;;;;5096859;28;20176;-67
2023/04/04 12:19:27;;;;;;;5.03;4.53;;;11.10;98.70;;;;;;5097119;28;20180;-67
2023/04/04 12:21:53;;;;;;;9.30;4.60;;;11.10;97.80;;;;;;5096987;28;20602;-67
2023/04/04 12:24:19;;;;;;;5.72;4.70;;;11.40;97.90;;;;;;5096708;28;20207;-67
2023/04/04 12:26:47;;;;;;;6.70;4.60;;;11.40;97.40;;;;;;5095557;28;20180;-67
2023/04/04 12:29:15;;;;;;;5.00;4.60;;;11.50;97.90;;;;;;5096034;28;20597;-67
2023/04/04 12:31:43;;;;;;;6.70;4.50;;;11.50;97.80;;;;;;5096696;28;20227;-67
2023/04/04 12:34:22;;;;;;;6.30;4.40;;;11.70;98.10;;;;;;5096732;28;20173;-67
2023/04/04 12:36:50;;;;;;;5.47;4.72;;;12.10;97.20;;;;;;5097010;28;20168;-68
2023/04/04 12:39:16;;;;;;;8.48;4.60;;;12.30;96.10;;;;;;5095251;28;20668;-67
2023/04/04 12:42:02;;;;;;;5.70;4.47;;;12.10;95.20;;;;;;5096464;28;20201;-68
2023/04/04 12:44:36;;;;;;;5.05;4.43;;;12.40;93.90;;;;;;5095322;28;20181;-68
2023/04/04 12:47:04;;;;;;;4.78;4.38;;;12.40;95.60;;;;;;5096691;28;20158;-68
2023/04/04 12:49:31;;;;;;;5.97;4.20;;;12.30;96.80;;;;;;5096505;28;20193;-68